createdAt,value
2019-01-10T00:02:04.445Z,40.51
2019-01-10T00:04:35.315Z,40.45
2019-01-10T00:07:05.737Z,40.68
2019-01-10T00:09:36.002Z,40.66
2019-01-10T00:12:06.283Z,40.57
2019-01-10T00:14:36.607Z,40.30
2019-01-10T00:17:07.288Z,40.53
2019-01-10T00:19:38.023Z,40.21
2019-01-10T00:22:09.407Z,40.08
2019-01-10T00:24:39.708Z,40.49
2019-01-10T00:27:10.590Z,40.24
2019-01-10T00:29:41.461Z,41.32
2019-01-10T00:32:11.741Z,41.96
2019-01-10T00:34:42.146Z,41.05
2019-01-10T00:37:13.025Z,40.89
2019-01-10T00:39:44.760Z,41.35
2019-01-10T00:42:15.207Z,41.13
2019-01-10T00:44:46.053Z,41.44
2019-01-10T00:47:16.809Z,40.95
2019-01-10T00:49:47.209Z,41.85
2019-01-10T00:52:17.489Z,41.20
2019-01-10T00:54:47.929Z,41.41
2019-01-10T00:57:18.221Z,42.20
2019-01-10T00:59:49.980Z,41.86
2019-01-10T01:02:20.253Z,41.68
2019-01-10T01:04:50.525Z,41.84
2019-01-10T01:07:20.855Z,41.41
2019-01-10T01:09:51.584Z,41.95
2019-01-10T01:12:21.890Z,41.65
2019-01-10T01:14:52.144Z,41.86
2019-01-10T01:17:22.529Z,41.72
2019-01-10T01:19:53.322Z,41.40
2019-01-10T01:22:24.116Z,40.97
2019-01-10T01:24:54.424Z,40.76
2019-01-10T01:27:24.727Z,40.85
2019-01-10T01:29:54.989Z,40.87
2019-01-10T01:32:25.747Z,41.30
2019-01-10T01:34:56.691Z,41.15
2019-01-10T01:37:27.837Z,40.93
2019-01-10T01:39:58.676Z,40.98
2019-01-10T01:42:29.020Z,42.31
2019-01-10T01:44:59.847Z,41.32
2019-01-10T01:47:30.205Z,41.89
2019-01-10T01:50:01.129Z,42.00
2019-01-10T01:52:33.071Z,41.82
2019-01-10T01:55:03.884Z,42.92
2019-01-10T01:57:34.187Z,42.45
2019-01-10T02:00:06.503Z,43.17
2019-01-10T02:02:36.909Z,43.39
2019-01-10T02:05:08.952Z,43.30
2019-01-10T02:07:39.642Z,43.68
2019-01-10T02:10:14.872Z,43.49
2019-01-10T02:12:45.174Z,43.29
2019-01-10T02:15:16.519Z,42.82
2019-01-10T02:17:49.273Z,43.46
2019-01-10T02:20:19.019Z,43.62
2019-01-10T02:22:49.492Z,43.38
2019-01-10T02:25:22.256Z,43.32
2019-01-10T02:27:52.621Z,43.21
2019-01-10T02:30:25.301Z,43.18
2019-01-10T02:32:55.597Z,43.64
2019-01-10T02:35:26.370Z,43.72
2019-01-10T02:37:56.655Z,43.37
2019-01-10T02:40:29.854Z,43.01
2019-01-10T02:43:00.120Z,42.45
2019-01-10T02:45:31.315Z,42.99
2019-01-10T02:48:01.622Z,43.33
2019-01-10T02:50:32.375Z,43.60
2019-01-10T02:53:02.672Z,43.56
2019-01-10T02:55:34.582Z,43.73
2019-01-10T02:58:04.949Z,43.76
2019-01-10T03:00:35.429Z,43.33
2019-01-10T03:03:05.818Z,44.33
2019-01-10T03:05:36.607Z,43.58
2019-01-10T03:08:06.894Z,43.50
2019-01-10T03:10:38.195Z,43.54
2019-01-10T03:13:08.459Z,43.16
2019-01-10T03:15:39.408Z,43.36
2019-01-10T03:18:09.671Z,43.23
2019-01-10T03:20:40.016Z,42.98
2019-01-10T03:23:10.376Z,42.71
2019-01-10T03:25:41.754Z,42.30
2019-01-10T03:28:12.034Z,42.81
2019-01-10T03:30:42.325Z,42.29
2019-01-10T03:33:12.592Z,42.81
2019-01-10T03:35:43.575Z,42.59
2019-01-10T03:38:13.845Z,42.58
2019-01-10T03:40:45.964Z,43.00
2019-01-10T03:43:16.243Z,42.64
2019-01-10T03:45:47.299Z,42.73
2019-01-10T03:48:17.562Z,42.85
2019-01-10T03:50:47.890Z,42.47
2019-01-10T03:53:18.172Z,42.67
2019-01-10T03:55:50.479Z,42.74
2019-01-10T03:58:20.776Z,42.45
2019-01-10T04:00:51.107Z,42.42
2019-01-10T04:03:21.452Z,42.67
2019-01-10T04:05:52.931Z,42.87
2019-01-10T04:08:23.208Z,42.71
2019-01-10T04:10:53.480Z,42.49
2019-01-10T04:13:24.118Z,42.25
2019-01-10T04:15:55.010Z,42.39
2019-01-10T04:18:25.495Z,43.04
2019-01-10T04:20:55.770Z,42.86
2019-01-10T04:23:26.092Z,42.66
2019-01-10T04:25:56.958Z,42.06
2019-01-10T04:28:27.810Z,41.70
2019-01-10T04:30:58.083Z,41.77
2019-01-10T04:33:28.359Z,41.75
2019-01-10T04:35:58.668Z,42.41
2019-01-10T04:38:29.449Z,42.78
2019-01-10T04:41:00.646Z,42.50
2019-01-10T04:43:31.010Z,42.34
2019-01-10T04:46:02.014Z,42.12
2019-01-10T04:48:32.856Z,42.63
2019-01-10T04:51:03.233Z,42.48
2019-01-10T04:53:33.514Z,42.60
2019-01-10T04:56:03.931Z,42.49
2019-01-10T04:58:34.179Z,42.95
2019-01-10T05:01:07.781Z,43.23
2019-01-10T05:03:38.137Z,42.90
2019-01-10T05:06:08.415Z,43.21
2019-01-10T05:08:38.694Z,43.44
2019-01-10T05:11:11.424Z,42.80
2019-01-10T05:13:41.958Z,43.08
2019-01-10T05:16:12.687Z,43.10
2019-01-10T05:18:42.993Z,42.82
2019-01-10T05:21:13.752Z,43.00
2019-01-10T05:23:44.180Z,42.79
2019-01-10T05:26:14.528Z,42.61
2019-01-10T05:28:44.811Z,42.74
2019-01-10T05:31:15.668Z,42.73
2019-01-10T05:33:46.134Z,43.12
2019-01-10T05:36:16.420Z,43.26
2019-01-10T05:38:46.688Z,43.17
2019-01-10T05:41:18.073Z,43.13
2019-01-10T05:43:48.831Z,42.77
2019-01-10T05:46:19.164Z,42.90
2019-01-10T05:48:49.455Z,43.07
2019-01-10T05:51:19.726Z,43.42
2019-01-10T05:53:53.168Z,43.32
2019-01-10T05:56:23.467Z,43.49
2019-01-10T05:58:53.731Z,43.61
2019-01-10T06:01:24.089Z,43.24
2019-01-10T06:03:54.386Z,43.10
2019-01-10T06:06:25.151Z,43.55
2019-01-10T06:08:55.443Z,44.00
2019-01-10T06:11:25.922Z,43.40
2019-01-10T06:13:56.202Z,43.17
2019-01-10T06:16:26.983Z,43.16
2019-01-10T06:18:57.284Z,43.22
2019-01-10T06:21:27.633Z,43.31
2019-01-10T06:23:58.556Z,43.08
2019-01-10T06:26:29.488Z,42.95
2019-01-10T06:28:59.819Z,43.11
2019-01-10T06:31:30.182Z,43.20
2019-01-10T06:34:00.540Z,43.03
2019-01-10T06:36:30.898Z,43.08
2019-01-10T06:39:01.700Z,42.93
2019-01-10T06:41:33.070Z,43.42
2019-01-10T06:44:03.388Z,43.58
2019-01-10T06:46:33.665Z,43.44
2019-01-10T06:49:04.187Z,43.52
2019-01-10T06:51:36.210Z,43.78
2019-01-10T06:54:06.683Z,43.94
2019-01-10T06:56:38.669Z,44.00
2019-01-10T06:59:09.364Z,44.41
2019-01-10T07:01:40.102Z,44.71
2019-01-10T07:04:10.865Z,44.42
2019-01-10T07:06:41.158Z,44.66
2019-01-10T07:09:11.491Z,44.45
2019-01-10T07:11:42.119Z,43.98
2019-01-10T07:14:12.932Z,44.26
2019-01-10T07:16:43.286Z,44.27
2019-01-10T07:19:13.558Z,44.21
2019-01-10T07:21:56.155Z,44.04
2019-01-10T07:24:27.863Z,44.06
2019-01-10T07:27:01.357Z,43.93
2019-01-10T07:29:31.624Z,43.95
2019-01-10T07:32:02.062Z,44.27
2019-01-10T07:34:32.306Z,43.98
2019-01-10T07:37:12.454Z,44.12
2019-01-10T07:39:39.410Z,43.72
2019-01-10T07:42:12.144Z,44.45
2019-01-10T07:44:42.410Z,44.38
2019-01-10T07:47:12.801Z,43.89
2019-01-10T07:49:43.693Z,44.19
2019-01-10T07:52:13.958Z,43.65
2019-01-10T07:54:44.258Z,43.92
2019-01-10T07:57:14.536Z,43.79
2019-01-10T07:59:44.814Z,44.20
2019-01-10T08:02:15.644Z,44.42
2019-01-10T08:04:45.900Z,44.08
2019-01-10T08:07:16.195Z,43.93
2019-01-10T08:09:46.465Z,43.73
2019-01-10T08:12:17.307Z,43.66
2019-01-10T08:14:47.584Z,43.71
2019-01-10T08:17:18.266Z,43.76
2019-01-10T08:19:48.652Z,43.89
2019-01-10T08:22:27.548Z,43.86
2019-01-10T08:24:53.018Z,44.29
2019-01-10T08:27:23.312Z,44.23
2019-01-10T08:29:53.579Z,44.06
2019-01-10T08:32:25.787Z,44.30
2019-01-10T08:34:56.058Z,44.22
2019-01-10T08:37:26.795Z,43.91
2019-01-10T08:39:57.114Z,44.19
2019-01-10T08:42:28.722Z,44.24
2019-01-10T08:44:59.031Z,43.93
2019-01-10T08:47:29.839Z,45.79
2019-01-10T08:50:00.281Z,45.24
2019-01-10T08:52:31.185Z,45.41
2019-01-10T08:55:01.530Z,45.01
2019-01-10T08:57:31.855Z,44.54
2019-01-10T09:00:02.120Z,44.14
2019-01-10T09:02:36.047Z,43.85
2019-01-10T09:05:06.434Z,44.28
2019-01-10T09:07:36.816Z,44.45
2019-01-10T09:10:10.726Z,44.32
2019-01-10T09:12:41.531Z,44.24
2019-01-10T09:15:11.784Z,44.29
2019-01-10T09:17:43.409Z,44.40
2019-01-10T09:20:14.110Z,44.32
2019-01-10T09:22:44.981Z,44.04
2019-01-10T09:25:15.295Z,44.56
2019-01-10T09:27:46.657Z,44.59
2019-01-10T09:30:18.637Z,44.71
2019-01-10T09:32:50.040Z,44.07
2019-01-10T09:35:20.640Z,43.83
2019-01-10T09:37:50.943Z,43.74
2019-01-10T09:40:22.246Z,43.89
2019-01-10T09:42:54.765Z,43.57
2019-01-10T09:45:25.964Z,43.44
2019-01-10T09:47:57.627Z,43.93
2019-01-10T09:50:28.055Z,43.64
2019-01-10T09:52:59.143Z,43.15
2019-01-10T09:55:29.432Z,43.14
2019-01-10T09:57:59.722Z,43.39
2019-01-10T10:00:31.026Z,42.82
2019-01-10T10:03:01.740Z,42.77
2019-01-10T10:05:34.151Z,42.90
2019-01-10T10:08:04.816Z,43.81
2019-01-10T10:10:35.243Z,43.03
2019-01-10T10:13:06.107Z,43.16
2019-01-10T10:15:36.416Z,43.42
2019-01-10T10:18:06.801Z,42.82
2019-01-10T10:20:37.704Z,43.16
2019-01-10T10:23:08.410Z,42.48
2019-01-10T10:25:38.735Z,42.39
2019-01-10T10:28:09.038Z,42.19
2019-01-10T10:30:39.310Z,41.85
2019-01-10T10:33:10.279Z,41.87
2019-01-10T10:35:40.576Z,41.97
2019-01-10T10:38:11.351Z,41.89
2019-01-10T10:40:41.619Z,42.10
2019-01-10T10:43:13.093Z,42.73
2019-01-10T10:45:43.394Z,42.85
2019-01-10T10:48:13.819Z,42.93
2019-01-10T10:50:44.172Z,43.40
2019-01-10T10:53:16.612Z,43.61
2019-01-10T10:55:46.973Z,43.51
2019-01-10T10:58:18.638Z,42.79
2019-01-10T11:00:48.964Z,42.78
2019-01-10T11:03:20.213Z,42.59
2019-01-10T11:05:50.508Z,42.57
2019-01-10T11:08:21.792Z,41.42
2019-01-10T11:10:52.076Z,40.79
2019-01-10T11:13:23.287Z,40.50
2019-01-10T11:15:53.585Z,40.76
2019-01-10T11:18:23.978Z,40.82
2019-01-10T11:20:54.272Z,40.36
2019-01-10T11:23:26.236Z,39.84
2019-01-10T11:25:56.540Z,39.29
2019-01-10T11:28:26.843Z,39.63
2019-01-10T11:30:57.179Z,39.70
2019-01-10T11:33:28.028Z,40.01
2019-01-10T11:35:58.354Z,39.85
2019-01-10T11:38:28.666Z,40.09
2019-01-10T11:41:00.236Z,39.88
2019-01-10T11:43:31.643Z,39.30
2019-01-10T11:46:02.066Z,39.17
2019-01-10T11:48:32.476Z,39.17
2019-01-10T11:51:02.788Z,39.78
2019-01-10T11:53:35.539Z,39.11
2019-01-10T11:56:06.450Z,38.87
2019-01-10T11:58:36.717Z,39.01
2019-01-10T12:01:07.617Z,38.98
2019-01-10T12:03:38.030Z,38.58
2019-01-10T12:06:08.753Z,38.73
2019-01-10T12:08:39.086Z,39.44
2019-01-10T12:11:09.964Z,38.95
2019-01-10T12:13:40.254Z,39.56
2019-01-10T12:16:10.554Z,38.89
2019-01-10T12:18:40.889Z,38.71
2019-01-10T12:21:11.671Z,38.67
2019-01-10T12:23:42.005Z,38.73
2019-01-10T12:26:13.478Z,39.30
2019-01-10T12:28:43.783Z,39.20
2019-01-10T12:31:14.059Z,39.22
2019-01-10T12:33:44.389Z,38.83
2019-01-10T12:36:15.164Z,39.50
2019-01-10T12:38:45.412Z,39.51
2019-01-10T12:41:16.743Z,39.25
2019-01-10T12:43:47.726Z,38.92
2019-01-10T12:46:18.114Z,39.35
2019-01-10T12:48:48.847Z,39.15
2019-01-10T12:51:19.177Z,39.57
2019-01-10T12:53:49.601Z,39.62
2019-01-10T12:56:21.570Z,40.68
2019-01-10T12:58:52.409Z,40.61
2019-01-10T13:01:22.739Z,40.85
2019-01-10T13:03:53.028Z,40.73
2019-01-10T13:06:23.334Z,40.55
2019-01-10T13:08:54.087Z,40.32
2019-01-10T13:11:25.776Z,40.45
2019-01-10T13:13:56.110Z,40.66
2019-01-10T13:16:26.494Z,40.61
2019-01-10T13:18:58.274Z,40.72
2019-01-10T13:21:28.650Z,40.89
2019-01-10T13:23:59.047Z,41.00
2019-01-10T13:26:29.877Z,41.25
2019-01-10T13:29:00.720Z,41.27
2019-01-10T13:31:31.023Z,40.94
2019-01-10T13:34:01.850Z,41.22
2019-01-10T13:36:32.126Z,41.47
2019-01-10T13:39:04.604Z,41.31
2019-01-10T13:41:34.879Z,41.19
2019-01-10T13:44:07.489Z,41.80
2019-01-10T13:46:37.953Z,41.55
2019-01-10T13:49:08.791Z,41.69
2019-01-10T13:51:39.129Z,41.52
2019-01-10T13:54:09.509Z,41.60
2019-01-10T13:56:39.881Z,41.68
2019-01-10T14:01:44.167Z,41.70
2019-01-10T14:04:14.527Z,41.42
2019-01-10T14:06:45.290Z,42.38
2019-01-10T14:09:16.170Z,42.30
2019-01-10T14:11:46.652Z,42.18
2019-01-10T14:14:17.054Z,42.09
2019-01-10T14:16:48.716Z,41.86
2019-01-10T14:19:19.525Z,41.94
2019-01-10T14:21:49.891Z,42.15
2019-01-10T14:24:21.189Z,42.93
2019-01-10T14:26:51.473Z,42.17
2019-01-10T14:29:22.267Z,42.53
2019-01-10T14:31:52.544Z,41.71
2019-01-10T14:34:23.427Z,42.01
2019-01-10T14:36:53.706Z,41.70
2019-01-10T14:39:24.015Z,42.36
2019-01-10T14:41:54.338Z,43.04
2019-01-10T14:44:25.960Z,42.91
2019-01-10T14:46:56.410Z,42.54
2019-01-10T14:49:26.852Z,41.92
2019-01-10T14:51:57.759Z,42.48
2019-01-10T14:54:28.616Z,42.56
2019-01-10T14:56:58.918Z,41.88
2019-01-10T14:59:29.434Z,42.52
2019-01-10T15:02:01.131Z,42.13
2019-01-10T15:04:31.869Z,42.18
2019-01-10T15:07:02.783Z,41.80
2019-01-10T15:09:33.078Z,41.49
2019-01-10T15:12:03.487Z,41.82
2019-01-10T15:14:34.279Z,42.64
2019-01-10T15:17:04.649Z,42.64
2019-01-10T15:19:34.933Z,42.13
2019-01-10T15:22:06.527Z,41.66
2019-01-10T15:24:37.428Z,41.82
2019-01-10T15:27:07.751Z,41.43
2019-01-10T15:29:38.028Z,41.24
2019-01-10T15:32:08.317Z,41.78
2019-01-10T15:34:39.295Z,42.31
2019-01-10T15:37:09.585Z,42.10
2019-01-10T15:39:40.511Z,42.58
2019-01-10T15:42:10.796Z,42.20
2019-01-10T15:44:43.125Z,42.71
2019-01-10T15:47:13.429Z,42.71
2019-01-10T15:49:43.790Z,42.65
2019-01-10T15:52:14.083Z,42.51
2019-01-10T15:54:46.968Z,43.19
2019-01-10T15:57:17.286Z,42.86
2019-01-10T15:59:47.597Z,43.19
2019-01-10T16:02:17.909Z,43.04
2019-01-10T16:04:48.699Z,43.61
2019-01-10T16:07:19.107Z,43.45
2019-01-10T16:09:49.410Z,43.82
2019-01-10T16:12:19.703Z,43.86
2019-01-10T16:14:50.413Z,44.18
2019-01-10T16:17:25.579Z,43.49
2019-01-10T16:19:53.302Z,43.77
2019-01-10T16:22:23.599Z,44.03
2019-01-10T16:24:53.971Z,44.10
2019-01-10T16:27:24.871Z,45.44
2019-01-10T16:29:55.284Z,45.52
2019-01-10T16:32:25.578Z,45.65
2019-01-10T16:34:56.153Z,45.97
2019-01-10T16:37:26.467Z,45.80
2019-01-10T16:39:57.290Z,46.25
2019-01-10T16:42:27.683Z,46.43
2019-01-10T16:45:00.044Z,46.74
2019-01-10T16:47:31.743Z,46.84
2019-01-10T16:50:02.657Z,47.10
2019-01-10T16:52:32.962Z,47.24
2019-01-10T16:55:03.529Z,47.23
2019-01-10T16:57:33.872Z,47.04
2019-01-10T17:00:06.727Z,46.28
2019-01-10T17:02:37.054Z,46.51
2019-01-10T17:05:07.584Z,46.53
2019-01-10T17:07:37.885Z,46.36
2019-01-10T17:10:09.458Z,45.88
2019-01-10T17:12:40.643Z,46.29
2019-01-10T17:15:11.699Z,46.37
2019-01-10T17:17:41.985Z,45.83
2019-01-10T17:20:14.674Z,46.27
2019-01-10T17:22:44.966Z,46.69
2019-01-10T17:25:15.837Z,46.18
2019-01-10T17:27:46.147Z,46.34
2019-01-10T17:30:24.087Z,46.56
2019-01-10T17:32:54.480Z,46.75
2019-01-10T17:35:27.041Z,47.08
2019-01-10T17:37:58.384Z,47.16
2019-01-10T17:40:29.228Z,46.76
2019-01-10T17:42:59.601Z,47.24
2019-01-10T17:45:34.507Z,46.55
2019-01-10T17:48:06.554Z,46.80
2019-01-10T17:50:37.286Z,47.50
2019-01-10T17:53:09.256Z,47.29
2019-01-10T17:55:39.636Z,46.81
2019-01-10T17:58:09.978Z,46.87
2019-01-10T18:00:41.684Z,46.94
2019-01-10T18:03:12.047Z,46.79
2019-01-10T18:05:42.893Z,47.12
2019-01-10T18:08:13.261Z,46.69
2019-01-10T18:10:44.448Z,46.99
2019-01-10T18:13:14.764Z,46.90
2019-01-10T18:15:46.230Z,46.93
2019-01-10T18:18:16.517Z,46.67
2019-01-10T18:20:47.383Z,46.52
2019-01-10T18:23:17.692Z,46.54
2019-01-10T18:25:48.020Z,46.51
2019-01-10T18:28:18.318Z,47.02
2019-01-10T18:30:50.593Z,46.56
2019-01-10T18:33:20.893Z,46.34
2019-01-10T18:35:51.293Z,46.11
2019-01-10T18:38:21.576Z,46.02
2019-01-10T18:40:52.361Z,45.52
2019-01-10T18:43:22.672Z,45.46
2019-01-10T18:45:55.831Z,45.56
2019-01-10T18:48:26.155Z,45.52
2019-01-10T18:50:56.941Z,45.65
2019-01-10T18:53:27.251Z,45.45
2019-01-10T18:55:57.534Z,45.77
2019-01-10T18:58:27.860Z,45.65
2019-01-10T19:00:58.702Z,45.72
2019-01-10T19:03:29.037Z,45.66
2019-01-10T19:05:59.536Z,45.67
2019-01-10T19:08:30.984Z,45.50
2019-01-10T19:11:01.859Z,45.17
2019-01-10T19:13:32.593Z,44.90
2019-01-10T19:16:02.906Z,44.88
2019-01-10T19:18:34.598Z,44.91
2019-01-10T19:21:05.461Z,44.72
2019-01-10T19:23:35.807Z,44.63
2019-01-10T19:26:06.223Z,45.07
2019-01-10T19:28:37.559Z,44.93
2019-01-10T19:31:08.562Z,44.93
2019-01-10T19:33:39.496Z,44.84
2019-01-10T19:36:09.827Z,45.37
2019-01-10T19:38:40.248Z,45.15
2019-01-10T19:41:11.088Z,44.87
2019-01-10T19:43:41.451Z,45.06
2019-01-10T19:46:12.172Z,44.72
2019-01-10T19:48:43.097Z,45.17
2019-01-10T19:51:13.923Z,44.73
2019-01-10T19:53:44.907Z,44.93
2019-01-10T19:56:16.219Z,44.69
2019-01-10T19:58:46.567Z,44.72
2019-01-10T20:01:17.402Z,44.79
2019-01-10T20:03:47.765Z,44.71
2019-01-10T20:06:19.441Z,44.81
2019-01-10T20:08:49.756Z,45.01
2019-01-10T20:11:20.055Z,44.69
2019-01-10T20:13:50.394Z,44.71
2019-01-10T20:16:21.203Z,44.59
2019-01-10T20:18:51.508Z,44.70
2019-01-10T20:21:22.330Z,45.87
2019-01-10T20:23:52.629Z,45.23
2019-01-10T20:26:22.953Z,45.00
2019-01-10T20:28:53.271Z,44.84
2019-01-10T20:31:24.064Z,45.26
2019-01-10T20:33:54.468Z,45.51
2019-01-10T20:36:25.332Z,45.36
2019-01-10T20:38:55.634Z,45.13
2019-01-10T20:41:26.042Z,45.47
2019-01-10T20:43:56.537Z,45.37
2019-01-10T20:46:28.140Z,45.38
2019-01-10T20:48:58.528Z,45.14
2019-01-10T20:51:28.968Z,45.35
2019-01-10T20:54:00.313Z,45.25
2019-01-10T20:56:31.110Z,46.11
2019-01-10T20:59:02.599Z,45.93
2019-01-10T21:01:32.928Z,45.84
2019-01-10T21:04:03.234Z,46.22
2019-01-10T21:06:33.661Z,46.17
2019-01-10T21:09:05.941Z,45.78
2019-01-10T21:11:36.245Z,45.90
2019-01-10T21:14:06.676Z,45.90
2019-01-10T21:16:36.972Z,45.92
2019-01-10T21:19:08.280Z,45.87
2019-01-10T21:21:38.688Z,46.06
2019-01-10T21:24:09.565Z,46.53
2019-01-10T21:26:39.868Z,46.11
2019-01-10T21:29:11.546Z,46.13
2019-01-10T21:31:41.873Z,45.83
2019-01-10T21:34:12.351Z,45.56
2019-01-10T21:36:42.796Z,45.73
2019-01-10T21:39:13.587Z,45.88
2019-01-10T21:41:43.981Z,45.75
2019-01-10T21:44:15.490Z,45.66
2019-01-10T21:46:47.430Z,45.93
2019-01-10T21:49:17.763Z,45.73
2019-01-10T21:51:48.437Z,45.85
2019-01-10T21:54:18.847Z,45.65
2019-01-10T21:56:49.123Z,45.75
2019-01-10T21:59:19.402Z,45.65
2019-01-10T22:01:51.358Z,45.83
2019-01-10T22:04:21.637Z,45.61
2019-01-10T22:06:52.629Z,45.58
2019-01-10T22:09:23.011Z,45.64
2019-01-10T22:11:53.788Z,45.86
2019-01-10T22:14:24.063Z,45.77
2019-01-10T22:16:56.285Z,45.59
2019-01-10T22:19:26.619Z,45.62
2019-01-10T22:21:56.984Z,45.64
2019-01-10T22:24:27.266Z,45.83
2019-01-10T22:26:58.177Z,46.17
2019-01-10T22:29:28.447Z,46.01
2019-01-10T22:32:00.410Z,46.67
2019-01-10T22:34:30.761Z,46.19
2019-01-10T22:37:01.601Z,46.07
2019-01-10T22:39:31.959Z,46.56
2019-01-10T22:42:02.249Z,46.46
2019-01-10T22:44:32.507Z,46.45
2019-01-10T22:47:04.598Z,46.44
2019-01-10T22:49:34.907Z,46.52
2019-01-10T22:52:05.250Z,46.75
2019-01-10T22:54:35.534Z,46.94
2019-01-10T22:57:06.254Z,46.66
2019-01-10T22:59:36.592Z,46.97
2019-01-10T23:02:09.391Z,47.04
2019-01-10T23:04:39.769Z,47.56
2019-01-10T23:07:20.702Z,47.58
2019-01-10T23:09:51.052Z,47.24
2019-01-10T23:12:21.403Z,47.42
2019-01-10T23:14:51.679Z,48.11
2019-01-10T23:17:25.434Z,47.85
2019-01-10T23:19:55.693Z,48.68
2019-01-10T23:22:26.188Z,49.15
2019-01-10T23:24:57.927Z,48.64
2019-01-10T23:27:28.983Z,49.46
2019-01-10T23:29:59.293Z,49.11
2019-01-10T23:32:29.589Z,49.03
2019-01-10T23:35:01.379Z,48.93
2019-01-10T23:37:32.269Z,49.00
2019-01-10T23:40:02.578Z,48.99
2019-01-10T23:42:32.864Z,49.19
2019-01-10T23:45:03.267Z,48.88
2019-01-10T23:47:34.748Z,48.82
2019-01-10T23:50:07.018Z,48.77
2019-01-10T23:52:37.395Z,49.03
2019-01-10T23:55:07.690Z,48.72
2019-01-10T23:57:38.003Z,48.52
